createdAt,value
2017-04-20T00:00:16.782Z,69.26
2017-04-20T00:01:16.757Z,68.98
2017-04-20T00:02:16.736Z,68.94
2017-04-20T00:03:16.704Z,69.22
2017-04-20T00:04:16.688Z,69.41
2017-04-20T00:05:19.688Z,69.22
2017-04-20T00:06:16.626Z,69.22
2017-04-20T00:07:16.600Z,69.22
2017-04-20T00:08:16.572Z,69.41
2017-04-20T00:09:16.557Z,69.22
2017-04-20T00:10:16.519Z,69.7
2017-04-20T00:11:16.494Z,69.89
2017-04-20T00:12:16.473Z,69.79
2017-04-20T00:13:16.448Z,69.79
2017-04-20T00:14:16.969Z,69.89
2017-04-20T00:15:29.120Z,69.7
2017-04-20T00:16:16.362Z,70.36
2017-04-20T00:17:16.334Z,70.45
2017-04-20T00:18:16.307Z,70.17
2017-04-20T00:19:16.285Z,70.17
2017-04-20T00:20:16.255Z,70.17
2017-04-20T00:21:15.926Z,70.36
2017-04-20T00:22:16.207Z,70.45
2017-04-20T00:23:16.182Z,70.07
2017-04-20T00:24:16.153Z,70.07
2017-04-20T00:25:16.127Z,70.83
2017-04-20T00:26:16.100Z,70.74
2017-04-20T00:27:16.073Z,70.93
2017-04-20T00:28:16.045Z,70.74
2017-04-20T00:29:16.019Z,71.02
2017-04-20T00:30:15.988Z,70.83
2017-04-20T00:31:15.968Z,71.02
2017-04-20T00:32:16.156Z,70.97
2017-04-20T00:33:15.911Z,70.39
2017-04-20T00:34:15.586Z,70.39
2017-04-20T00:35:15.859Z,70.55
2017-04-20T00:36:15.836Z,70.36
2017-04-20T00:37:15.804Z,70.39
2017-04-20T00:38:15.785Z,69.98
2017-04-20T00:39:15.906Z,70.07
2017-04-20T00:40:15.727Z,70.36
2017-04-20T00:41:15.699Z,70.74
2017-04-20T00:42:15.678Z,71.02
2017-04-20T00:43:15.655Z,70.83
2017-04-20T00:44:15.622Z,70.83
2017-04-20T00:45:15.594Z,70.83
2017-04-20T00:46:15.569Z,70.83
2017-04-20T00:47:15.542Z,70.93
2017-04-20T00:48:15.513Z,70.83
2017-04-20T00:49:15.493Z,70.93
2017-04-20T00:50:15.514Z,70.83
2017-04-20T00:51:15.431Z,70.74
2017-04-20T00:52:15.416Z,70.93
2017-04-20T00:53:15.383Z,70.74
2017-04-20T00:54:15.358Z,71.21
2017-04-20T00:55:15.328Z,71.12
2017-04-20T00:56:15.000Z,71.5
2017-04-20T00:57:15.278Z,71.97
2017-04-20T00:58:14.949Z,71.34
2017-04-20T00:59:15.223Z,70.87
2017-04-20T01:00:15.208Z,70.39
2017-04-20T01:01:15.177Z,70.11
2017-04-20T01:02:15.146Z,69.82
2017-04-20T01:03:15.171Z,69.35
2017-04-20T01:04:16.288Z,69.35
2017-04-20T01:05:15.066Z,68.4
2017-04-20T01:06:15.042Z,68.4
2017-04-20T01:07:15.014Z,68.5
2017-04-20T01:08:14.985Z,68.12
2017-04-20T01:09:14.973Z,68.4
2017-04-20T01:10:14.938Z,68.31
2017-04-20T01:11:14.907Z,68.4
2017-04-20T01:12:14.881Z,68.59
2017-04-20T01:13:14.856Z,68.69
2017-04-20T01:14:14.832Z,68.56
2017-04-20T01:15:14.798Z,69.17
2017-04-20T01:16:14.777Z,69.51
2017-04-20T01:17:14.746Z,69.41
2017-04-20T01:18:14.728Z,69.51
2017-04-20T01:19:14.695Z,69.51
2017-04-20T01:20:14.669Z,69.98
2017-04-20T01:21:14.643Z,69.89
2017-04-20T01:22:14.869Z,69.89
2017-04-20T01:23:14.592Z,69.79
2017-04-20T01:24:14.563Z,69.79
2017-04-20T01:25:14.536Z,69.6
2017-04-20T01:26:14.509Z,69.98
2017-04-20T01:27:14.489Z,69.7
2017-04-20T01:28:14.454Z,69.98
2017-04-20T01:29:14.422Z,69.98
2017-04-20T01:30:14.402Z,70.07
2017-04-20T01:31:14.377Z,70.26
2017-04-20T01:32:14.352Z,70.45
2017-04-20T01:34:14.299Z,70.17
2017-04-20T01:35:14.274Z,69.98
2017-04-20T01:36:14.245Z,70.45
2017-04-20T01:37:13.917Z,70.45
2017-04-20T01:38:14.190Z,70.93
2017-04-20T01:39:14.165Z,70.45
2017-04-20T01:40:14.142Z,70.36
2017-04-20T01:41:14.112Z,70.74
2017-04-20T01:42:14.085Z,71.02
2017-04-20T01:43:14.055Z,70.93
2017-04-20T01:44:14.034Z,71.21
2017-04-20T01:45:14.017Z,71.4
2017-04-20T01:46:13.978Z,71.12
2017-04-20T01:47:13.949Z,71.27
2017-04-20T01:48:15.326Z,71.88
2017-04-20T01:49:13.907Z,71.65
2017-04-20T01:50:13.867Z,72.03
2017-04-20T01:51:13.845Z,71.74
2017-04-20T01:52:13.817Z,72.03
2017-04-20T01:53:13.792Z,71.84
2017-04-20T01:54:13.763Z,72.06
2017-04-20T01:55:13.739Z,72.25
2017-04-20T01:56:13.714Z,72.53
2017-04-20T01:57:13.689Z,71.88
2017-04-20T01:58:13.356Z,71.97
2017-04-20T01:59:13.635Z,71.88
2017-04-20T02:00:13.607Z,71.65
2017-04-20T02:01:13.579Z,72.03
2017-04-20T02:02:13.554Z,72.12
2017-04-20T02:03:13.527Z,71.84
2017-04-20T02:04:13.200Z,72.34
2017-04-20T02:05:13.168Z,72.16
2017-04-20T02:06:13.440Z,72.06
2017-04-20T02:07:13.413Z,72.16
2017-04-20T02:08:13.402Z,72.06
2017-04-20T02:09:13.413Z,72.22
2017-04-20T02:10:13.339Z,71.93
2017-04-20T02:11:13.355Z,72.03
2017-04-20T02:12:13.277Z,72.12
2017-04-20T02:13:13.254Z,72.06
2017-04-20T02:14:13.227Z,72.16
2017-04-20T02:15:13.199Z,71.88
2017-04-20T02:16:13.169Z,72.06
2017-04-20T02:17:13.304Z,72.06
2017-04-20T02:18:13.120Z,72.12
2017-04-20T02:19:13.192Z,72.22
2017-04-20T02:20:13.066Z,72.69
2017-04-20T02:21:13.038Z,72.22
2017-04-20T02:22:13.010Z,72.31
2017-04-20T02:23:12.982Z,72.97
2017-04-20T02:24:13.705Z,72.78
2017-04-20T02:25:12.979Z,72.78
2017-04-20T02:26:12.900Z,72.6
2017-04-20T02:27:12.875Z,72.5
2017-04-20T02:28:12.894Z,72.6
2017-04-20T02:29:12.824Z,72.78
2017-04-20T02:30:12.790Z,72.69
2017-04-20T02:31:12.769Z,72.41
2017-04-20T02:32:12.742Z,72.78
2017-04-20T02:33:12.712Z,72.41
2017-04-20T02:34:12.686Z,73.16
2017-04-20T02:35:12.663Z,73.26
2017-04-20T02:36:12.630Z,73.45
2017-04-20T02:37:12.599Z,73.64
2017-04-20T02:38:12.633Z,73.73
2017-04-20T02:39:12.556Z,73.45
2017-04-20T02:40:12.520Z,73.83
2017-04-20T02:41:12.527Z,74.11
2017-04-20T02:42:12.473Z,74.02
2017-04-20T02:43:12.139Z,73.92
2017-04-20T02:44:12.417Z,73.64
2017-04-20T02:45:12.391Z,73.54
2017-04-20T02:46:12.357Z,74.11
2017-04-20T02:47:13.084Z,74.21
2017-04-20T02:48:12.308Z,74.02
2017-04-20T02:49:12.277Z,74.11
2017-04-20T02:50:12.248Z,74.4
2017-04-20T02:51:12.222Z,74.21
2017-04-20T02:52:12.196Z,74.58
2017-04-20T02:53:12.170Z,74.49
2017-04-20T02:54:12.146Z,74.58
2017-04-20T02:55:12.111Z,74.49
2017-04-20T02:56:12.087Z,74.3
2017-04-20T02:57:12.057Z,74.96
2017-04-20T02:58:12.033Z,74.58
2017-04-20T02:59:12.012Z,74.96
2017-04-20T03:00:12.269Z,74.83
2017-04-20T03:01:11.949Z,74.49
2017-04-20T03:02:11.922Z,74.68
2017-04-20T03:03:11.943Z,74.55
2017-04-20T03:04:11.871Z,75.15
2017-04-20T03:05:11.848Z,75.21
2017-04-20T03:06:11.813Z,75.62
2017-04-20T03:07:11.781Z,75.49
2017-04-20T03:08:11.760Z,75.59
2017-04-20T03:09:13.334Z,75.62
2017-04-20T03:10:11.702Z,75.62
2017-04-20T03:11:11.680Z,75.78
2017-04-20T03:12:11.345Z,75.68
2017-04-20T03:13:11.624Z,75.78
2017-04-20T03:14:11.596Z,75.31
2017-04-20T03:15:11.574Z,76.06
2017-04-20T03:16:11.541Z,76.15
2017-04-20T03:17:11.512Z,75.78
2017-04-20T03:18:11.485Z,76.34
2017-04-20T03:19:11.811Z,76.44
2017-04-20T03:20:11.434Z,76.53
2017-04-20T03:21:11.403Z,76.06
2017-04-20T03:22:11.376Z,75.96
2017-04-20T03:23:11.348Z,76.34
2017-04-20T03:24:11.318Z,76.25
2017-04-20T03:25:11.310Z,76.63
2017-04-20T03:26:11.272Z,76.34
2017-04-20T03:27:11.236Z,76.34
2017-04-20T03:28:12.313Z,76.53
2017-04-20T03:29:11.183Z,76.72
2017-04-20T03:30:10.852Z,76.91
2017-04-20T03:31:11.129Z,76.82
2017-04-20T03:32:11.100Z,77.1
2017-04-20T03:33:11.070Z,76.82
2017-04-20T03:34:12.375Z,76.82
2017-04-20T03:35:11.014Z,77.01
2017-04-20T03:36:10.990Z,76.82
2017-04-20T03:37:10.963Z,76.72
2017-04-20T03:38:10.943Z,76.82
2017-04-20T03:39:10.907Z,76.82
2017-04-20T03:40:10.591Z,76.63
2017-04-20T03:41:10.851Z,76.44
2017-04-20T03:42:10.876Z,76.53
2017-04-20T03:43:10.795Z,76.72
2017-04-20T03:44:10.769Z,76.82
2017-04-20T03:45:10.742Z,76.72
2017-04-20T03:46:10.714Z,77.1
2017-04-20T03:47:10.689Z,77.58
2017-04-20T03:48:10.660Z,77.67
2017-04-20T03:49:10.636Z,77.39
2017-04-20T03:50:10.608Z,77.29
2017-04-20T03:51:10.575Z,77.67
2017-04-20T03:52:10.558Z,77.48
2017-04-20T03:53:10.524Z,77.29
2017-04-20T03:54:10.550Z,77.39
2017-04-20T03:55:10.464Z,76.91
2017-04-20T03:56:10.447Z,77.58
2017-04-20T03:57:10.415Z,77.48
2017-04-20T03:58:10.388Z,77.67
2017-04-20T03:59:10.357Z,78.14
2017-04-20T04:00:10.390Z,78.23
2017-04-20T04:01:10.298Z,77.82
2017-04-20T04:02:10.277Z,78.42
2017-04-20T04:03:10.252Z,78.14
2017-04-20T04:04:10.220Z,78.61
2017-04-20T04:05:10.189Z,78.42
2017-04-20T04:06:10.167Z,78.42
2017-04-20T04:07:10.141Z,78.33
2017-04-20T04:08:10.115Z,78.8
2017-04-20T04:09:10.097Z,78.52
2017-04-20T04:10:10.050Z,78.61
2017-04-20T04:11:09.729Z,78.8
2017-04-20T04:12:09.995Z,78.71
2017-04-20T04:13:09.971Z,78.86
2017-04-20T04:14:09.947Z,78.42
2017-04-20T04:15:09.913Z,78.71
2017-04-20T04:16:09.884Z,78.71
2017-04-20T04:17:09.857Z,79.28
2017-04-20T04:18:09.833Z,78.9
2017-04-20T04:19:09.802Z,79.18
2017-04-20T04:20:09.819Z,79.28
2017-04-20T04:21:09.746Z,79.56
2017-04-20T04:22:09.937Z,79.66
2017-04-20T04:23:09.698Z,79.85
2017-04-20T04:24:09.715Z,79.85
2017-04-20T04:25:09.634Z,79.85
2017-04-20T04:26:09.606Z,79.94
2017-04-20T04:27:09.580Z,79.94
2017-04-20T04:28:10.003Z,79.18
2017-04-20T04:29:09.526Z,79.47
2017-04-20T04:30:09.496Z,79.28
2017-04-20T04:31:09.477Z,79.37
2017-04-20T04:32:09.464Z,79.28
2017-04-20T04:33:09.417Z,79.75
2017-04-20T04:34:09.385Z,79.47
2017-04-20T04:35:09.363Z,79.18
2017-04-20T04:36:09.333Z,79.28
2017-04-20T04:37:09.314Z,79.47
2017-04-20T04:38:09.278Z,79.37
2017-04-20T04:39:09.250Z,79.66
2017-04-20T04:40:09.222Z,79.75
2017-04-20T04:41:09.244Z,79.85
2017-04-20T04:42:09.173Z,79.56
2017-04-20T04:43:09.138Z,79.66
2017-04-20T04:44:09.113Z,79.47
2017-04-20T04:45:09.086Z,79.47
2017-04-20T04:46:09.057Z,79.56
2017-04-20T04:47:09.029Z,79.66
2017-04-20T04:48:09.010Z,79.66
2017-04-20T04:49:08.974Z,79.37
2017-04-20T04:50:08.993Z,79.56
2017-04-20T04:51:08.920Z,79.47
2017-04-20T04:52:08.895Z,79.79
2017-04-20T04:53:08.867Z,79.88
2017-04-20T04:54:08.840Z,79.69
2017-04-20T04:55:08.816Z,79.41
2017-04-20T04:56:08.792Z,79.22
2017-04-20T04:57:08.761Z,79.13
2017-04-20T04:58:08.735Z,79.13
2017-04-20T04:59:08.706Z,78.85
2017-04-20T05:00:08.687Z,79.03
2017-04-20T05:01:08.655Z,78.56
2017-04-20T05:02:08.630Z,78.37
2017-04-20T05:03:08.604Z,78.46
2017-04-20T05:04:08.574Z,77.99
2017-04-20T05:05:08.549Z,77.89
2017-04-20T05:06:08.520Z,77.89
2017-04-20T05:07:08.492Z,77.27
2017-04-20T05:08:08.473Z,77.46
2017-04-20T05:09:08.444Z,76.99
2017-04-20T05:10:08.419Z,76.61
2017-04-20T05:11:08.389Z,76.61
2017-04-20T05:12:08.363Z,75.89
2017-04-20T05:13:08.041Z,75.42
2017-04-20T05:14:08.318Z,75.42
2017-04-20T05:15:08.284Z,74.56
2017-04-20T05:16:08.261Z,74.85
2017-04-20T05:17:08.254Z,74.69
2017-04-20T05:18:08.213Z,74.13
2017-04-20T05:19:08.187Z,73.37
2017-04-20T05:20:07.865Z,73.18
2017-04-20T05:21:08.141Z,72.23
2017-04-20T05:22:08.112Z,71.7
2017-04-20T05:23:08.091Z,70.75
2017-04-20T05:24:08.072Z,70.56
2017-04-20T05:25:08.091Z,69.8
2017-04-20T05:26:08.019Z,69.99
2017-04-20T05:27:07.994Z,69.08
2017-04-20T05:28:07.971Z,68.51
2017-04-20T05:29:07.956Z,67.94
2017-04-20T05:30:07.618Z,67.18
2017-04-20T05:31:07.896Z,66.8
2017-04-20T05:32:07.871Z,66.61
2017-04-20T05:33:08.034Z,66.89
2017-04-20T05:34:07.821Z,66.61
2017-04-20T05:35:07.805Z,65.98
2017-04-20T05:36:07.781Z,65.6
2017-04-20T05:37:07.754Z,65.41
2017-04-20T05:38:07.735Z,65.98
2017-04-20T05:39:07.710Z,64.65
2017-04-20T05:40:07.686Z,64.37
2017-04-20T05:41:07.660Z,64.17
2017-04-20T05:42:07.644Z,63.64
2017-04-20T05:43:07.664Z,63.17
2017-04-20T05:44:07.588Z,63.07
2017-04-20T05:45:07.570Z,62.02
2017-04-20T05:46:07.542Z,61.68
2017-04-20T05:47:07.520Z,60.91
2017-04-20T05:48:07.495Z,60.72
2017-04-20T05:49:07.475Z,59.96
2017-04-20T05:50:07.454Z,59.39
2017-04-20T05:51:07.135Z,59.3
2017-04-20T05:52:07.410Z,59.2
2017-04-20T05:53:07.384Z,58.54
2017-04-20T05:54:07.365Z,58.25
2017-04-20T05:55:07.350Z,57.87
2017-04-20T05:56:07.323Z,58.25
2017-04-20T05:57:07.297Z,58.35
2017-04-20T05:58:07.269Z,57.87
2017-04-20T05:59:07.250Z,57.71
2017-04-20T06:00:07.238Z,56.76
2017-04-20T06:01:07.258Z,57.04
2017-04-20T06:02:07.184Z,57.14
2017-04-20T06:03:07.161Z,56.67
2017-04-20T06:04:07.147Z,56.03
2017-04-20T06:05:07.124Z,55.55
2017-04-20T06:06:07.097Z,54.89
2017-04-20T06:07:07.127Z,54.03
2017-04-20T06:08:07.054Z,53.46
2017-04-20T06:09:06.736Z,53.65
2017-04-20T06:10:06.718Z,53.49
2017-04-20T06:11:06.689Z,52.92
2017-04-20T06:12:06.967Z,52.34
2017-04-20T06:13:06.946Z,51.87
2017-04-20T06:14:06.925Z,52.25
2017-04-20T06:15:06.944Z,53.01
2017-04-20T06:16:06.880Z,52.34
2017-04-20T06:17:06.862Z,51.78
2017-04-20T06:18:06.841Z,52.06
2017-04-20T06:19:06.823Z,51.97
2017-04-20T06:20:06.800Z,51.23
2017-04-20T06:21:06.830Z,50.09
2017-04-20T06:22:06.761Z,50.27
2017-04-20T06:23:06.742Z,49.99
2017-04-20T06:24:06.710Z,50.21
2017-04-20T06:25:06.695Z,49.63
2017-04-20T06:26:06.675Z,49.82
2017-04-20T06:27:06.653Z,49.54
2017-04-20T06:28:06.632Z,48.52
2017-04-20T06:29:06.619Z,48.13
2017-04-20T06:30:06.593Z,47.28
2017-04-20T06:31:06.572Z,47.37
2017-04-20T06:32:06.553Z,48.13
2017-04-20T06:33:06.530Z,48.23
2017-04-20T06:34:06.513Z,47.08
2017-04-20T06:35:06.506Z,47.47
2017-04-20T06:36:06.481Z,47.02
2017-04-20T06:37:06.453Z,46.63
2017-04-20T06:38:06.433Z,46.34
2017-04-20T06:39:06.413Z,45.89
2017-04-20T06:40:06.402Z,45.22
2017-04-20T06:41:06.398Z,44.38
2017-04-20T06:42:06.353Z,43.26
2017-04-20T06:43:06.332Z,42.31
2017-04-20T06:44:06.312Z,40.88
2017-04-20T06:45:05.997Z,41.06
2017-04-20T06:46:06.276Z,40.78
2017-04-20T06:47:06.257Z,41.09
2017-04-20T06:48:06.256Z,40.89
2017-04-20T06:49:06.213Z,40.8
2017-04-20T06:50:06.196Z,40.23
2017-04-20T06:51:06.236Z,40.06
2017-04-20T06:52:06.171Z,39.86
2017-04-20T06:53:06.152Z,39.48
2017-04-20T06:54:06.128Z,39.1
2017-04-20T06:55:06.105Z,38.62
2017-04-20T06:56:06.088Z,38.05
2017-04-20T06:57:06.073Z,37.95
2017-04-20T06:58:06.048Z,37.74
2017-04-20T06:59:06.290Z,37.85
2017-04-20T07:00:06.017Z,38.14
2017-04-20T07:01:06.003Z,38.14
2017-04-20T07:02:05.686Z,38.26
2017-04-20T07:03:05.962Z,37.78
2017-04-20T07:04:05.951Z,37.23
2017-04-20T07:05:05.934Z,36.47
2017-04-20T07:06:05.608Z,35.14
2017-04-20T07:07:05.586Z,35.04
2017-04-20T07:08:05.874Z,34.66
2017-04-20T07:09:05.856Z,34.37
2017-04-20T07:10:05.838Z,33.12
2017-04-20T07:11:05.828Z,33.22
2017-04-20T07:12:05.812Z,33.3
2017-04-20T07:13:05.794Z,33.12
2017-04-20T07:14:05.778Z,32.36
2017-04-20T07:15:05.759Z,33.22
2017-04-20T07:16:05.738Z,33.22
2017-04-20T07:17:05.729Z,33.41
2017-04-20T07:18:05.708Z,33.41
2017-04-20T07:19:05.688Z,32.57
2017-04-20T07:20:05.669Z,32.1
2017-04-20T07:21:05.658Z,32.1
2017-04-20T07:22:05.639Z,32.1
2017-04-20T07:23:05.621Z,31.63
2017-04-20T07:24:05.601Z,31.43
2017-04-20T07:25:05.587Z,31.15
2017-04-20T07:26:05.569Z,31.15
2017-04-20T07:27:05.551Z,30.49
2017-04-20T07:28:05.541Z,30.2
2017-04-20T07:29:05.521Z,30.29
2017-04-20T07:30:05.508Z,30.4
2017-04-20T07:31:05.496Z,29.63
2017-04-20T07:32:05.473Z,29.91
2017-04-20T07:33:05.461Z,29.8
2017-04-20T07:34:05.450Z,29.52
2017-04-20T07:35:05.429Z,29.42
2017-04-20T07:36:05.416Z,29.9
2017-04-20T07:37:05.398Z,29.8
2017-04-20T07:38:05.383Z,29.69
2017-04-20T07:39:05.365Z,29.5
2017-04-20T07:40:05.348Z,29.02
2017-04-20T07:41:05.334Z,29.69
2017-04-20T07:42:05.020Z,29.88
2017-04-20T07:43:05.305Z,29.71
2017-04-20T07:44:05.288Z,29.71
2017-04-20T07:45:05.276Z,28.67
2017-04-20T07:46:05.259Z,28.67
2017-04-20T07:47:05.244Z,28.28
2017-04-20T07:48:05.229Z,28.2
2017-04-20T07:49:05.212Z,28.2
2017-04-20T07:50:04.897Z,27.93
2017-04-20T07:51:05.181Z,27.83
2017-04-20T07:52:05.164Z,27.66
2017-04-20T07:53:06.151Z,27.27
2017-04-20T07:54:05.136Z,26.7
2017-04-20T07:55:05.122Z,26.4
2017-04-20T07:56:05.162Z,26.31
2017-04-20T07:57:05.093Z,26.2
2017-04-20T07:58:05.075Z,26.21
2017-04-20T07:59:05.764Z,25.93
2017-04-20T08:00:05.044Z,26.5
2017-04-20T08:01:05.041Z,25.64
2017-04-20T08:02:05.021Z,25.64
2017-04-20T08:03:05.012Z,25.34
2017-04-20T08:04:04.994Z,25.99
2017-04-20T08:05:04.976Z,25.21
2017-04-20T08:06:04.969Z,25.7
2017-04-20T08:07:04.948Z,25.7
2017-04-20T08:08:04.939Z,26.08
2017-04-20T08:09:04.929Z,26.16
2017-04-20T08:10:04.908Z,26.27
2017-04-20T08:11:04.893Z,25.12
2017-04-20T08:12:04.877Z,24.55
2017-04-20T08:13:04.559Z,24.45
2017-04-20T08:14:04.854Z,24.55
2017-04-20T08:15:04.884Z,24.65
2017-04-20T08:16:04.821Z,24.46
2017-04-20T08:17:04.806Z,23.88
2017-04-20T08:18:04.794Z,23.11
2017-04-20T08:19:04.825Z,23.01
2017-04-20T08:20:04.770Z,23.48
2017-04-20T08:21:04.743Z,23.78
2017-04-20T08:22:04.730Z,23.21
2017-04-20T08:23:04.714Z,22.91
2017-04-20T08:24:04.403Z,22.82
2017-04-20T08:25:04.736Z,22.44
2017-04-20T08:26:04.670Z,21.48
2017-04-20T08:27:04.658Z,21.56
2017-04-20T08:28:04.726Z,22.24
2017-04-20T08:29:04.625Z,22.42
2017-04-20T08:30:04.612Z,22.61
2017-04-20T08:31:04.646Z,22.15
2017-04-20T08:32:04.581Z,20.34
2017-04-20T08:33:04.613Z,21.2
2017-04-20T08:34:04.553Z,21.01
2017-04-20T08:35:04.740Z,21.87
2017-04-20T08:36:04.552Z,21.31
2017-04-20T08:37:04.209Z,21.21
2017-04-20T08:38:04.494Z,20.73
2017-04-20T08:39:04.182Z,20.44
2017-04-20T08:40:04.466Z,20.92
2017-04-20T08:41:04.465Z,20.84
2017-04-20T08:42:04.433Z,20.84
2017-04-20T08:43:04.421Z,20.36
2017-04-20T08:44:04.406Z,19.31
2017-04-20T08:45:04.394Z,19.4
2017-04-20T08:46:04.380Z,19.59
2017-04-20T08:47:04.357Z,19.78
2017-04-20T08:48:04.351Z,19.77
2017-04-20T08:49:04.349Z,19.2
2017-04-20T08:50:04.321Z,19.38
2017-04-20T08:51:04.305Z,20.14
2017-04-20T08:52:04.290Z,20.71
2017-04-20T08:53:04.285Z,20.79
2017-04-20T08:54:04.268Z,21.18
2017-04-20T08:55:04.263Z,21.36
2017-04-20T08:56:04.235Z,21.36
2017-04-20T08:57:04.219Z,21.74
2017-04-20T08:58:04.202Z,21.95
2017-04-20T08:59:04.197Z,21.56
2017-04-20T09:00:04.176Z,21.19
2017-04-20T09:01:04.183Z,21.38
2017-04-20T09:02:04.147Z,21.39
2017-04-20T09:03:04.138Z,21.2
2017-04-20T09:04:04.128Z,20.83
2017-04-20T09:05:04.108Z,19.87
2017-04-20T09:06:04.101Z,19.2
2017-04-20T09:07:04.125Z,20.06
2017-04-20T09:08:04.056Z,20.24
2017-04-20T09:09:04.053Z,20.91
2017-04-20T09:10:04.032Z,20.53
2017-04-20T09:11:04.016Z,21.01
2017-04-20T09:12:04.009Z,21.39
2017-04-20T09:13:04.014Z,20.92
2017-04-20T09:14:03.970Z,20.17
2017-04-20T09:15:03.971Z,20.27
2017-04-20T09:16:03.649Z,19.4
2017-04-20T09:17:03.928Z,19.7
2017-04-20T09:18:03.916Z,19.31
2017-04-20T09:19:03.908Z,19.12
2017-04-20T09:20:03.888Z,18.91
2017-04-20T09:21:04.476Z,19.1
2017-04-20T09:22:03.871Z,20.14
2017-04-20T09:23:03.844Z,20.42
2017-04-20T09:24:03.840Z,21.28
2017-04-20T09:25:03.818Z,21.67
2017-04-20T09:26:03.820Z,20.23
2017-04-20T09:27:03.942Z,20.9
2017-04-20T09:28:03.475Z,20.41
2017-04-20T09:29:03.759Z,20.98
2017-04-20T09:30:03.745Z,21.08
2017-04-20T09:31:03.731Z,21.18
2017-04-20T09:32:03.712Z,21.18
2017-04-20T09:33:03.708Z,21.37
2017-04-20T09:34:03.689Z,21.19
2017-04-20T09:35:03.669Z,21.11
2017-04-20T09:36:03.360Z,20.54
2017-04-20T09:37:03.659Z,20.44
2017-04-20T09:38:03.641Z,20.36
2017-04-20T09:39:03.610Z,20.36
2017-04-20T09:40:03.602Z,20.26
2017-04-20T09:41:03.585Z,20.45
2017-04-20T09:42:03.567Z,19.98
2017-04-20T09:43:03.559Z,19.78
2017-04-20T09:44:03.546Z,20.07
2017-04-20T09:45:03.526Z,20.37
2017-04-20T09:46:03.517Z,20.37
2017-04-20T09:47:03.504Z,20.27
2017-04-20T09:48:03.503Z,20.26
2017-04-20T09:49:03.484Z,20.92
2017-04-20T09:50:03.471Z,20.35
2017-04-20T09:51:03.451Z,20.73
2017-04-20T09:52:03.432Z,21.21
2017-04-20T09:53:03.418Z,20.44
2017-04-20T09:54:03.410Z,20.64
2017-04-20T09:55:03.386Z,20.73
2017-04-20T09:56:03.379Z,19.77
2017-04-20T09:57:03.371Z,20.34
2017-04-20T09:58:03.351Z,21.08
2017-04-20T09:59:03.334Z,22.6
2017-04-20T10:00:03.315Z,24.02
2017-04-20T10:01:03.301Z,24.87
2017-04-20T10:02:03.290Z,25.43
2017-04-20T10:03:03.274Z,26.1
2017-04-20T10:04:03.255Z,26.19
2017-04-20T10:05:03.241Z,26.11
2017-04-20T10:06:03.237Z,26.1
2017-04-20T10:07:03.205Z,26.29
2017-04-20T10:08:03.196Z,26.67
2017-04-20T10:09:02.873Z,26.56
2017-04-20T10:10:03.179Z,27.15
2017-04-20T10:11:03.137Z,26.48
2017-04-20T10:12:03.118Z,26.48
2017-04-20T10:13:03.108Z,25.92
2017-04-20T10:14:02.781Z,25.36
2017-04-20T10:15:03.076Z,25.16
2017-04-20T10:16:03.050Z,24.6
2017-04-20T10:17:03.039Z,24.7
2017-04-20T10:18:03.015Z,24.32
2017-04-20T10:19:03.001Z,23.57
2017-04-20T10:20:02.991Z,23.08
2017-04-20T10:21:02.965Z,22.99
2017-04-20T10:22:02.954Z,23.47
2017-04-20T10:23:02.953Z,23.36
2017-04-20T10:24:02.931Z,22.6
2017-04-20T10:25:02.926Z,23.46
2017-04-20T10:26:02.883Z,23.36
2017-04-20T10:27:02.878Z,23.36
2017-04-20T10:28:02.942Z,23.17
2017-04-20T10:29:02.842Z,23.65
2017-04-20T10:30:02.833Z,24.03
2017-04-20T10:31:02.813Z,23.83
2017-04-20T10:32:02.799Z,24.02
2017-04-20T10:33:02.782Z,24.5
2017-04-20T10:34:02.813Z,24.87
2017-04-20T10:35:02.744Z,25.81
2017-04-20T10:36:02.724Z,26.1
2017-04-20T10:37:02.717Z,26.29
2017-04-20T10:38:02.688Z,26.09
2017-04-20T10:39:02.681Z,26.66
2017-04-20T10:40:02.676Z,26.74
2017-04-20T10:41:02.639Z,27.22
2017-04-20T10:42:02.319Z,27.31
2017-04-20T10:43:02.604Z,26.74
2017-04-20T10:44:02.342Z,27.39
2017-04-20T10:45:02.570Z,28.25
2017-04-20T10:46:02.549Z,28.64
2017-04-20T10:47:02.529Z,28.43
2017-04-20T10:48:02.514Z,28.53
2017-04-20T10:49:02.503Z,28.81
2017-04-20T10:50:02.485Z,29.58
2017-04-20T10:51:02.447Z,29.67
2017-04-20T10:52:02.435Z,29.48
2017-04-20T10:53:02.431Z,29.58
2017-04-20T10:54:02.390Z,29.48
2017-04-20T10:55:02.373Z,29.18
2017-04-20T10:56:02.410Z,30.13
2017-04-20T10:57:02.034Z,30.13
2017-04-20T10:58:02.314Z,29.94
2017-04-20T10:59:02.293Z,30.42
2017-04-20T11:00:04.374Z,30.52
2017-04-20T11:01:02.252Z,30.8
2017-04-20T11:02:02.231Z,30.9
2017-04-20T11:03:02.216Z,31.09
2017-04-20T11:04:02.192Z,31.18
2017-04-20T11:05:02.175Z,31.28
2017-04-20T11:06:02.152Z,31.56
2017-04-20T11:07:02.131Z,31.95
2017-04-20T11:08:02.109Z,31.66
2017-04-20T11:09:02.134Z,31.28
2017-04-20T11:10:02.075Z,31.66
2017-04-20T11:11:02.051Z,31.76
2017-04-20T11:12:02.025Z,31.84
2017-04-20T11:13:02.016Z,31.56
2017-04-20T11:14:01.987Z,31.93
2017-04-20T11:15:01.962Z,32.12
2017-04-20T11:16:01.945Z,32.32
2017-04-20T11:17:01.974Z,32.14
2017-04-20T11:18:01.911Z,31.95
2017-04-20T11:19:01.886Z,31.76
2017-04-20T11:20:01.862Z,31.85
2017-04-20T11:21:01.838Z,31.37
2017-04-20T11:22:01.819Z,31.74
2017-04-20T11:23:01.493Z,32.31
2017-04-20T11:24:01.772Z,32.88
2017-04-20T11:25:01.751Z,32.23
2017-04-20T11:26:01.750Z,31.66
2017-04-20T11:27:01.711Z,31.47
2017-04-20T11:28:01.689Z,31.56
2017-04-20T11:29:01.668Z,32.04
2017-04-20T11:30:01.645Z,31.76
2017-04-20T11:31:01.354Z,31.76
2017-04-20T11:32:01.626Z,32.32
2017-04-20T11:33:01.588Z,32.31
2017-04-20T11:34:01.262Z,31.45
2017-04-20T11:35:01.543Z,31.45
2017-04-20T11:36:01.524Z,32.12
2017-04-20T11:37:01.504Z,31.93
2017-04-20T11:38:01.481Z,31.93
2017-04-20T11:39:01.151Z,31.93
2017-04-20T11:40:01.535Z,31.93
2017-04-20T11:41:01.428Z,32.04
2017-04-20T11:42:01.390Z,32.04
2017-04-20T11:43:01.373Z,32.23
2017-04-20T11:44:01.361Z,32.52
2017-04-20T11:45:01.320Z,32.23
2017-04-20T11:46:01.356Z,32.04
2017-04-20T11:47:01.283Z,32.14
2017-04-20T11:48:01.267Z,32.14
2017-04-20T11:49:01.238Z,31.95
2017-04-20T11:50:01.215Z,31.76
2017-04-20T11:51:00.892Z,31.09
2017-04-20T11:52:01.428Z,31.26
2017-04-20T11:53:01.154Z,32.04
2017-04-20T11:54:01.136Z,32.31
2017-04-20T11:55:01.111Z,33.07
2017-04-20T11:56:02.399Z,32.98
2017-04-20T11:57:00.762Z,33.17
2017-04-20T11:58:01.054Z,33.17
2017-04-20T11:59:01.075Z,33.36
2017-04-20T12:00:01.005Z,33.34
2017-04-20T12:01:01.002Z,34.11
2017-04-20T12:02:00.965Z,34.39
2017-04-20T12:03:00.658Z,34.2
2017-04-20T12:04:00.929Z,34.3
2017-04-20T12:05:00.616Z,34.48
2017-04-20T12:06:00.877Z,34.3
2017-04-20T12:07:00.857Z,34.41
2017-04-20T12:08:00.861Z,34.31
2017-04-20T12:09:00.814Z,34.41
2017-04-20T12:10:02.486Z,34.22
2017-04-20T12:11:00.761Z,34.31
2017-04-20T12:12:00.740Z,33.36
2017-04-20T12:13:00.723Z,33.47
2017-04-20T12:14:00.697Z,33
2017-04-20T12:15:00.683Z,33.18
2017-04-20T12:16:00.649Z,33.18
2017-04-20T12:17:00.322Z,33.28
2017-04-20T12:18:00.608Z,33
2017-04-20T12:19:00.586Z,32.14
2017-04-20T12:20:00.579Z,32.23
2017-04-20T12:21:00.546Z,32.32
2017-04-20T12:22:00.691Z,32.32
2017-04-20T12:23:00.650Z,32.61
2017-04-20T12:24:00.475Z,33.37
2017-04-20T12:25:00.150Z,33.45
2017-04-20T12:26:00.432Z,33.45
2017-04-20T12:27:00.411Z,33.26
2017-04-20T12:28:00.390Z,33.76
2017-04-20T12:29:00.364Z,33.57
2017-04-20T12:30:01.366Z,33.95
2017-04-20T12:31:00.340Z,33.66
2017-04-20T12:32:00.307Z,33.37
2017-04-20T12:33:00.284Z,33.09
2017-04-20T12:34:00.260Z,32.23
2017-04-20T12:35:00.237Z,32.23
2017-04-20T12:36:00.217Z,33
2017-04-20T12:37:00.193Z,32.9
2017-04-20T12:38:00.220Z,33.18
2017-04-20T12:39:00.153Z,32.81
2017-04-20T12:40:00.129Z,33.18
2017-04-20T12:41:00.106Z,32.71
2017-04-20T12:42:00.086Z,32.32
2017-04-20T12:43:00.067Z,32.14
2017-04-20T12:44:00.044Z,31.95
2017-04-20T12:45:00.023Z,32.04
2017-04-20T12:45:59.998Z,32.14
2017-04-20T12:46:59.677Z,32.23
2017-04-20T12:47:59.954Z,32.23
2017-04-20T12:48:59.933Z,31.95
2017-04-20T12:49:59.917Z,31.95
2017-04-20T12:50:59.891Z,32.42
2017-04-20T12:51:59.868Z,32.32
2017-04-20T12:52:59.843Z,32.14
2017-04-20T12:53:59.871Z,32.14
2017-04-20T12:54:59.844Z,32.14
2017-04-20T12:55:59.830Z,31.95